createdAt,value
2023-03-13T00:02:41.420Z,10.53
2023-03-13T00:05:47.833Z,6.70
2023-03-13T00:08:54.170Z,7.17
2023-03-13T00:12:00.581Z,5.77
2023-03-13T00:15:08.007Z,5.27
2023-03-13T00:18:15.879Z,6.13
2023-03-13T00:21:24.332Z,7.13
2023-03-13T00:24:30.949Z,5.40
2023-03-13T00:27:37.589Z,5.57
2023-03-13T00:30:44.370Z,6.43
2023-03-13T00:33:54.264Z,6.77
2023-03-13T00:37:00.597Z,5.30
2023-03-13T00:40:08.330Z,10.37
2023-03-13T00:43:14.806Z,10.87
2023-03-13T00:46:23.436Z,9.50
2023-03-13T00:49:31.263Z,8.27
2023-03-13T00:52:37.822Z,7.23
2023-03-13T00:55:53.922Z,6.77
2023-03-13T00:59:02.061Z,5.77
2023-03-13T01:02:08.369Z,4.60
2023-03-13T01:05:16.154Z,5.20
2023-03-13T01:08:22.612Z,5.13
2023-03-13T01:11:31.365Z,4.53
2023-03-13T01:14:37.868Z,5.33
2023-03-13T01:17:45.658Z,5.27
2023-03-13T01:20:52.922Z,5.90
2023-03-13T01:23:59.595Z,5.73
2023-03-13T01:27:05.944Z,7.13
2023-03-13T01:30:13.666Z,6.23
2023-03-13T01:33:19.751Z,5.60
2023-03-13T01:36:28.634Z,6.00
2023-03-13T01:39:34.798Z,7.03
2023-03-13T01:42:54.506Z,7.47
2023-03-13T01:46:04.075Z,5.03
2023-03-13T01:49:14.478Z,5.47
2023-03-13T01:52:25.874Z,4.63
2023-03-13T01:55:31.916Z,3.97
2023-03-13T01:58:39.238Z,4.43
2023-03-13T02:01:48.590Z,5.50
2023-03-13T02:04:59.796Z,5.07
2023-03-13T02:08:10.817Z,5.57
2023-03-13T02:11:26.023Z,4.47
2023-03-13T02:14:37.070Z,4.77
2023-03-13T02:17:44.366Z,3.97
2023-03-13T02:20:55.371Z,7.07
2023-03-13T02:24:14.831Z,10.27
2023-03-13T02:27:23.011Z,7.67
2023-03-13T02:30:30.299Z,8.87
2023-03-13T02:33:40.636Z,9.70
2023-03-13T02:36:47.616Z,11.77
2023-03-13T02:39:55.143Z,5.03
2023-03-13T02:43:04.697Z,4.63
2023-03-13T02:46:14.323Z,4.47
2023-03-13T02:49:28.353Z,5.63
2023-03-13T02:52:39.319Z,4.17
2023-03-13T02:55:46.081Z,5.60
2023-03-13T02:58:54.454Z,7.60
2023-03-13T03:02:00.756Z,6.13
2023-03-13T03:05:07.659Z,5.60
2023-03-13T03:08:13.903Z,7.67
2023-03-13T03:11:20.354Z,6.93
2023-03-13T03:14:27.782Z,8.37
2023-03-13T03:17:34.120Z,8.03
2023-03-13T03:20:40.094Z,6.67
2023-03-13T03:23:46.116Z,5.33
2023-03-13T03:26:52.519Z,8.10
2023-03-13T03:30:00.029Z,8.47
2023-03-13T03:33:06.393Z,8.20
2023-03-13T03:36:14.590Z,7.47
2023-03-13T03:39:20.879Z,7.73
2023-03-13T03:42:27.365Z,7.00
2023-03-13T03:45:35.007Z,5.43
2023-03-13T03:48:41.212Z,7.20
2023-03-13T03:51:48.753Z,6.20
2023-03-13T03:54:54.977Z,8.07
2023-03-13T03:58:01.185Z,7.60
2023-03-13T04:01:08.998Z,7.80
2023-03-13T04:04:15.277Z,10.03
2023-03-13T04:07:21.465Z,8.83
2023-03-13T04:10:27.406Z,10.03
2023-03-13T04:13:33.400Z,19.07
2023-03-13T04:16:40.812Z,16.23
2023-03-13T04:19:47.088Z,17.43
2023-03-13T04:22:53.277Z,14.77
2023-03-13T04:25:59.302Z,15.43
2023-03-13T04:29:06.514Z,11.40
2023-03-13T04:32:14.209Z,7.80
2023-03-13T04:35:20.547Z,6.93
2023-03-13T04:38:26.599Z,9.17
2023-03-13T04:41:32.983Z,12.57
2023-03-13T04:44:40.053Z,34.57
2023-03-13T04:47:49.249Z,83.50
2023-03-13T04:50:55.623Z,38.40
2023-03-13T04:54:01.714Z,31.70
2023-03-13T04:57:08.205Z,37.80
2023-03-13T05:00:14.990Z,27.17
2023-03-13T05:03:22.709Z,25.30
2023-03-13T05:06:29.022Z,13.50
2023-03-13T05:09:35.084Z,9.03
2023-03-13T05:12:41.009Z,22.40
2023-03-13T05:15:46.963Z,30.30
2023-03-13T05:18:54.383Z,17.80
2023-03-13T05:22:00.824Z,12.90
2023-03-13T05:25:07.532Z,9.07
2023-03-13T05:28:14.023Z,16.70
2023-03-13T05:31:20.331Z,22.07
2023-03-13T05:34:28.287Z,16.93
2023-03-13T05:37:34.914Z,17.63
2023-03-13T05:40:41.354Z,11.23
2023-03-13T05:43:47.997Z,12.17
2023-03-13T05:46:54.442Z,11.83
2023-03-13T05:50:02.283Z,11.97
2023-03-13T05:53:08.792Z,13.57
2023-03-13T05:56:15.216Z,13.97
2023-03-13T05:59:21.507Z,16.87
2023-03-13T06:02:27.870Z,24.67
2023-03-13T06:05:35.862Z,14.97
2023-03-13T06:08:42.327Z,12.43
2023-03-13T06:11:48.561Z,16.87
2023-03-13T06:14:54.961Z,15.83
2023-03-13T06:18:01.428Z,28.77
2023-03-13T06:21:09.176Z,22.03
2023-03-13T06:24:15.574Z,17.03
2023-03-13T06:27:21.728Z,14.33
2023-03-13T06:30:27.994Z,13.50
2023-03-13T06:33:34.533Z,13.90
2023-03-13T06:36:42.306Z,14.37
2023-03-13T06:39:48.444Z,10.40
2023-03-13T06:42:54.721Z,9.30
2023-03-13T06:46:06.411Z,8.03
2023-03-13T06:49:12.735Z,10.17
2023-03-13T06:52:21.238Z,9.67
2023-03-13T06:55:28.333Z,5.90
2023-03-13T06:58:35.187Z,5.63
2023-03-13T07:01:41.498Z,6.87
2023-03-13T07:04:47.956Z,6.20
2023-03-13T07:07:55.752Z,7.17
2023-03-13T07:11:03.885Z,6.23
2023-03-13T07:14:17.009Z,7.37
2023-03-13T07:17:24.164Z,5.87
2023-03-13T07:20:30.368Z,8.33
2023-03-13T07:23:38.034Z,7.73
2023-03-13T07:27:01.546Z,5.93
2023-03-13T07:30:11.556Z,7.03
2023-03-13T07:33:18.230Z,6.17
2023-03-13T07:36:24.410Z,6.20
2023-03-13T07:39:31.874Z,4.97
2023-03-13T07:42:40.819Z,5.30
2023-03-13T07:45:57.889Z,3.40
2023-03-13T07:49:04.407Z,3.80
2023-03-13T07:52:11.629Z,3.37
2023-03-13T07:55:19.658Z,4.30
2023-03-13T07:58:27.001Z,3.33
2023-03-13T08:01:33.552Z,2.97
2023-03-13T08:04:40.161Z,3.40
2023-03-13T08:07:46.734Z,2.77
2023-03-13T08:10:54.931Z,3.30
2023-03-13T08:14:01.612Z,4.20
2023-03-13T08:17:08.071Z,3.00
2023-03-13T08:20:14.838Z,3.83
2023-03-13T08:23:21.240Z,4.70
2023-03-13T08:26:31.190Z,2.23
2023-03-13T08:29:37.702Z,3.17
2023-03-13T08:32:44.354Z,2.63
2023-03-13T08:35:50.702Z,2.80
2023-03-13T08:39:00.285Z,3.73
2023-03-13T08:42:09.820Z,3.77
2023-03-13T08:45:16.291Z,2.97
2023-03-13T08:48:23.050Z,4.93
2023-03-13T08:51:30.316Z,3.37
2023-03-13T08:54:36.523Z,3.70
2023-03-13T08:57:44.518Z,3.70
2023-03-13T09:00:50.926Z,4.37
2023-03-13T09:03:58.049Z,3.73
2023-03-13T09:07:04.801Z,2.53
2023-03-13T09:10:12.134Z,4.13
2023-03-13T09:13:19.846Z,3.80
2023-03-13T09:20:00.137Z,2.77
2023-03-13T09:23:06.837Z,3.10
2023-03-13T09:26:14.729Z,2.33
2023-03-13T09:29:22.816Z,4.00
2023-03-13T09:32:29.429Z,2.50
2023-03-13T09:35:35.918Z,2.47
2023-03-13T09:38:42.637Z,2.40
2023-03-13T09:41:57.030Z,4.90
2023-03-13T09:45:10.432Z,6.37
2023-03-13T09:48:26.230Z,3.90
2023-03-13T09:51:37.485Z,2.27
2023-03-13T09:54:48.838Z,3.17
2023-03-13T09:57:57.716Z,3.17
2023-03-13T10:01:07.178Z,3.10
2023-03-13T10:04:30.529Z,3.37
2023-03-13T10:07:38.192Z,2.93
2023-03-13T10:10:47.556Z,3.33
2023-03-13T10:13:58.210Z,3.10
2023-03-13T10:17:14.824Z,3.80
2023-03-13T10:20:25.805Z,3.87
2023-03-13T10:23:39.965Z,2.80
2023-03-13T10:26:46.096Z,3.93
2023-03-13T10:29:52.213Z,1.77
2023-03-13T10:33:23.454Z,2.77
2023-03-13T10:36:41.791Z,2.37
2023-03-13T10:39:47.985Z,3.53
2023-03-13T10:43:01.239Z,3.83
2023-03-13T10:46:09.898Z,2.80
2023-03-13T10:49:19.551Z,3.63
2023-03-13T10:52:42.619Z,2.67
2023-03-13T10:55:49.114Z,3.50
2023-03-13T10:58:55.147Z,2.80
2023-03-13T11:02:02.670Z,2.20
